sensor_id;sensor_type;location;lat;lon;timestamp;pressure;altitude;pressure_sealevel;temperature;humidity
71485;BME280;59300;52.074;4.758;2022-09-21T00:01:28;102749.91;;;10.09;100.00
71485;BME280;59300;52.074;4.758;2022-09-21T00:04:30;102746.41;;;10.10;100.00
71485;BME280;59300;52.074;4.758;2022-09-21T00:07:31;102747.31;;;10.10;100.00
71485;BME280;59300;52.074;4.758;2022-09-21T00:10:33;102745.53;;;10.09;100.00
71485;BME280;59300;52.074;4.758;2022-09-21T00:13:35;102743.78;;;10.08;100.00
71485;BME280;59300;52.074;4.758;2022-09-21T00:16:38;102742.91;;;10.08;100.00
71485;BME280;59300;52.074;4.758;2022-09-21T00:19:40;102737.56;;;10.03;100.00
71485;BME280;59300;52.074;4.758;2022-09-21T00:22:41;102734.94;;;10.00;100.00
71485;BME280;59300;52.074;4.758;2022-09-21T00:25:43;102734.03;;;9.93;100.00
71485;BME280;59300;52.074;4.758;2022-09-21T00:28:45;102737.50;;;9.84;100.00
71485;BME280;59300;52.074;4.758;2022-09-21T00:31:47;102733.03;;;9.77;100.00
71485;BME280;59300;52.074;4.758;2022-09-21T00:34:48;102727.75;;;9.71;100.00
71485;BME280;59300;52.074;4.758;2022-09-21T00:37:50;102740.06;;;9.72;100.00
71485;BME280;59300;52.074;4.758;2022-09-21T00:40:52;102740.03;;;9.71;100.00
71485;BME280;59300;52.074;4.758;2022-09-21T00:47:24;102739.09;;;9.58;100.00
71485;BME280;59300;52.074;4.758;2022-09-21T00:50:27;102736.41;;;9.51;100.00
71485;BME280;59300;52.074;4.758;2022-09-21T00:53:28;102733.75;;;9.44;100.00
71485;BME280;59300;52.074;4.758;2022-09-21T00:56:30;102740.78;;;9.45;100.00
71485;BME280;59300;52.074;4.758;2022-09-21T00:59:34;102747.75;;;9.40;100.00
71485;BME280;59300;52.074;4.758;2022-09-21T01:02:37;102745.09;;;9.35;100.00
71485;BME280;59300;52.074;4.758;2022-09-21T01:05:39;102742.41;;;9.30;100.00
71485;BME280;59300;52.074;4.758;2022-09-21T01:08:41;102739.75;;;9.26;100.00
71485;BME280;59300;52.074;4.758;2022-09-21T01:18:17;102739.63;;;9.10;100.00
71485;BME280;59300;52.074;4.758;2022-09-21T01:21:25;102735.97;;;8.97;100.00
71485;BME280;59300;52.074;4.758;2022-09-21T01:24:47;102747.28;;;8.88;100.00
71485;BME280;59300;52.074;4.758;2022-09-21T01:31:04;102738.28;;;8.62;100.00
71485;BME280;59300;52.074;4.758;2022-09-21T01:34:18;102738.94;;;8.45;100.00
71485;BME280;59300;52.074;4.758;2022-09-21T01:37:46;102733.53;;;8.33;100.00
71485;BME280;59300;52.074;4.758;2022-09-21T01:40:52;102738.63;;;8.20;100.00
71485;BME280;59300;52.074;4.758;2022-09-21T01:43:59;102738.53;;;8.11;100.00
71485;BME280;59300;52.074;4.758;2022-09-21T01:47:06;102735.81;;;8.05;100.00
71485;BME280;59300;52.074;4.758;2022-09-21T01:50:10;102736.59;;;7.97;100.00
71485;BME280;59300;52.074;4.758;2022-09-21T01:59:50;102742.44;;;7.78;100.00
71485;BME280;59300;52.074;4.758;2022-09-21T02:06:08;102736.94;;;7.61;100.00
71485;BME280;59300;52.074;4.758;2022-09-21T02:09:12;102738.59;;;7.54;100.00
71485;BME280;59300;52.074;4.758;2022-09-21T02:12:13;102734.25;;;7.56;100.00
71485;BME280;59300;52.074;4.758;2022-09-21T02:15:23;102742.94;;;7.49;100.00
71485;BME280;59300;52.074;4.758;2022-09-21T02:18:35;102734.94;;;7.44;100.00
71485;BME280;59300;52.074;4.758;2022-09-21T02:22:04;102736.72;;;7.45;100.00
71485;BME280;59300;52.074;4.758;2022-09-21T02:25:14;102742.81;;;7.43;100.00
71485;BME280;59300;52.074;4.758;2022-09-21T02:28:39;102737.50;;;7.40;100.00
71485;BME280;59300;52.074;4.758;2022-09-21T02:32:10;102742.56;;;7.27;100.00
71485;BME280;59300;52.074;4.758;2022-09-21T02:38:38;102737.22;;;7.21;100.00
71485;BME280;59300;52.074;4.758;2022-09-21T02:42:04;102736.31;;;7.19;100.00
71485;BME280;59300;52.074;4.758;2022-09-21T02:45:08;102737.31;;;7.27;100.00
71485;BME280;59300;52.074;4.758;2022-09-21T02:48:14;102726.81;;;7.27;100.00
71485;BME280;59300;52.074;4.758;2022-09-21T02:51:56;102731.13;;;7.25;100.00
71485;BME280;59300;52.074;4.758;2022-09-21T02:54:51;102727.53;;;7.18;100.00
71485;BME280;59300;52.074;4.758;2022-09-21T02:57:54;102724.81;;;7.11;100.00
71485;BME280;59300;52.074;4.758;2022-09-21T03:00:56;102722.91;;;7.03;100.00
71485;BME280;59300;52.074;4.758;2022-09-21T03:03:58;102726.38;;;6.99;100.00
71485;BME280;59300;52.074;4.758;2022-09-21T03:07:00;102731.63;;;6.99;100.00
71485;BME280;59300;52.074;4.758;2022-09-21T03:10:02;102731.63;;;6.99;100.00
71485;BME280;59300;52.074;4.758;2022-09-21T03:13:04;102727.09;;;6.92;100.00
71485;BME280;59300;52.074;4.758;2022-09-21T03:16:06;102729.72;;;6.92;100.00
71485;BME280;59300;52.074;4.758;2022-09-21T03:19:08;102732.34;;;6.90;100.00
71485;BME280;59300;52.074;4.758;2022-09-21T03:22:10;102740.91;;;6.82;100.00
71485;BME280;59300;52.074;4.758;2022-09-21T03:25:11;102738.13;;;6.72;100.00
71485;BME280;59300;52.074;4.758;2022-09-21T03:28:14;102739.84;;;6.72;100.00
71485;BME280;59300;52.074;4.758;2022-09-21T03:31:15;102744.97;;;6.64;100.00
71485;BME280;59300;52.074;4.758;2022-09-21T03:34:17;102738.72;;;6.57;100.00
71485;BME280;59300;52.074;4.758;2022-09-21T03:37:18;102751.03;;;6.61;100.00
71485;BME280;59300;52.074;4.758;2022-09-21T03:40:20;102745.66;;;6.55;100.00
71485;BME280;59300;52.074;4.758;2022-09-21T03:43:21;102748.16;;;6.48;100.00
71485;BME280;59300;52.074;4.758;2022-09-21T03:46:23;102755.19;;;6.49;100.00
71485;BME280;59300;52.074;4.758;2022-09-21T03:49:25;102761.28;;;6.48;100.00
71485;BME280;59300;52.074;4.758;2022-09-21T03:52:26;102750.72;;;6.46;100.00
71485;BME280;59300;52.074;4.758;2022-09-21T03:55:28;102759.53;;;6.48;100.00
71485;BME280;59300;52.074;4.758;2022-09-21T03:58:29;102754.28;;;6.48;100.00
71485;BME280;59300;52.074;4.758;2022-09-21T04:01:31;102755.97;;;6.44;100.00
71485;BME280;59300;52.074;4.758;2022-09-21T04:04:32;102749.72;;;6.39;100.00
71485;BME280;59300;52.074;4.758;2022-09-21T04:07:34;102747.94;;;6.38;100.00
71485;BME280;59300;52.074;4.758;2022-09-21T04:10:38;102750.41;;;6.29;100.00
71485;BME280;59300;52.074;4.758;2022-09-21T04:13:39;102750.41;;;6.29;100.00
71485;BME280;59300;52.074;4.758;2022-09-21T04:16:41;102747.78;;;6.29;100.00
71485;BME280;59300;52.074;4.758;2022-09-21T04:19:42;102749.53;;;6.30;100.00
71485;BME280;59300;52.074;4.758;2022-09-21T04:22:44;102744.22;;;6.27;100.00
71485;BME280;59300;52.074;4.758;2022-09-21T04:25:47;102751.38;;;6.34;100.00
71485;BME280;59300;52.074;4.758;2022-09-21T04:28:50;102748.03;;;6.41;100.00
71485;BME280;59300;52.074;4.758;2022-09-21T04:31:51;102756.03;;;6.49;100.00
71485;BME280;59300;52.074;4.758;2022-09-21T04:34:53;102755.53;;;6.67;100.00
71485;BME280;59300;52.074;4.758;2022-09-21T04:37:54;102751.41;;;6.82;100.00
71485;BME280;59300;52.074;4.758;2022-09-21T04:40:56;102750.78;;;6.95;100.00
71485;BME280;59300;52.074;4.758;2022-09-21T04:43:57;102756.13;;;7.01;100.00
71485;BME280;59300;52.074;4.758;2022-09-21T04:46:59;102759.72;;;7.06;100.00
71485;BME280;59300;52.074;4.758;2022-09-21T04:50:01;102758.09;;;7.12;100.00
71485;BME280;59300;52.074;4.758;2022-09-21T04:53:03;102758.16;;;7.18;100.00
71485;BME280;59300;52.074;4.758;2022-09-21T04:56:05;102754.75;;;7.22;100.00
71485;BME280;59300;52.074;4.758;2022-09-21T04:59:06;102752.22;;;7.28;100.00
71485;BME280;59300;52.074;4.758;2022-09-21T05:02:08;102759.28;;;7.31;100.00
71485;BME280;59300;52.074;4.758;2022-09-21T05:05:10;102754.91;;;7.31;100.00
71485;BME280;59300;52.074;4.758;2022-09-21T05:08:11;102759.22;;;7.29;100.00
71485;BME280;59300;52.074;4.758;2022-09-21T05:11:15;102759.00;;;7.15;100.00
71485;BME280;59300;52.074;4.758;2022-09-21T05:14:16;102765.81;;;7.04;100.00
71485;BME280;59300;52.074;4.758;2022-09-21T05:17:18;102763.88;;;6.94;100.00
71485;BME280;59300;52.074;4.758;2022-09-21T05:20:19;102762.69;;;6.78;100.00
71485;BME280;59300;52.074;4.758;2022-09-21T05:23:22;102764.31;;;6.71;100.00
71485;BME280;59300;52.074;4.758;2022-09-21T05:26:23;102767.66;;;6.62;100.00
71485;BME280;59300;52.074;4.758;2022-09-21T05:29:25;102762.38;;;6.59;100.00
71485;BME280;59300;52.074;4.758;2022-09-21T05:36:06;102769.19;;;6.51;100.00
71485;BME280;59300;52.074;4.758;2022-09-21T05:39:11;102765.72;;;6.52;100.00
71485;BME280;59300;52.074;4.758;2022-09-21T05:42:12;102772.00;;;6.60;100.00
71485;BME280;59300;52.074;4.758;2022-09-21T05:45:15;102772.16;;;6.68;100.00
71485;BME280;59300;52.074;4.758;2022-09-21T05:48:22;102773.13;;;6.74;100.00
71485;BME280;59300;52.074;4.758;2022-09-21T06:01:37;102779.78;;;7.55;100.00
71485;BME280;59300;52.074;4.758;2022-09-21T06:04:43;102774.91;;;7.80;100.00
71485;BME280;59300;52.074;4.758;2022-09-21T06:07:44;102783.94;;;8.00;100.00
71485;BME280;59300;52.074;4.758;2022-09-21T06:10:46;102778.91;;;8.16;100.00
71485;BME280;59300;52.074;4.758;2022-09-21T06:13:47;102780.88;;;8.33;100.00
71485;BME280;59300;52.074;4.758;2022-09-21T06:16:49;102780.25;;;8.51;100.00
71485;BME280;59300;52.074;4.758;2022-09-21T06:19:51;102781.34;;;8.68;100.00
71485;BME280;59300;52.074;4.758;2022-09-21T06:22:59;102783.22;;;8.80;100.00
71485;BME280;59300;52.074;4.758;2022-09-21T06:26:01;102778.03;;;8.89;100.00
71485;BME280;59300;52.074;4.758;2022-09-21T06:29:02;102786.88;;;8.95;100.00
71485;BME280;59300;52.074;4.758;2022-09-21T06:32:04;102795.75;;;9.06;100.00
71485;BME280;59300;52.074;4.758;2022-09-21T06:35:06;102781.78;;;9.13;100.00
71485;BME280;59300;52.074;4.758;2022-09-21T06:38:07;102785.34;;;9.18;100.00
71485;BME280;59300;52.074;4.758;2022-09-21T06:41:09;102782.03;;;9.44;100.00
71485;BME280;59300;52.074;4.758;2022-09-21T06:44:10;102782.34;;;9.89;100.00
71485;BME280;59300;52.074;4.758;2022-09-21T06:47:12;102788.06;;;10.87;100.00
71485;BME280;59300;52.074;4.758;2022-09-21T06:50:13;102777.91;;;12.89;100.00
71485;BME280;59300;52.074;4.758;2022-09-21T06:53:15;102780.19;;;14.95;90.59
71485;BME280;59300;52.074;4.758;2022-09-21T06:56:16;102781.03;;;16.44;91.73
71485;BME280;59300;52.074;4.758;2022-09-21T06:59:18;102783.13;;;17.08;84.57
71485;BME280;59300;52.074;4.758;2022-09-21T07:02:19;102787.28;;;17.89;75.90
71485;BME280;59300;52.074;4.758;2022-09-21T07:05:21;102785.19;;;18.01;73.12
71485;BME280;59300;52.074;4.758;2022-09-21T07:08:22;102786.56;;;18.46;73.55
71485;BME280;59300;52.074;4.758;2022-09-21T07:11:44;102781.81;;;17.92;65.42
71485;BME280;59300;52.074;4.758;2022-09-21T07:14:45;102786.97;;;18.02;68.64
71485;BME280;59300;52.074;4.758;2022-09-21T07:17:47;102795.63;;;18.08;62.16
71485;BME280;59300;52.074;4.758;2022-09-21T07:21:07;102787.50;;;17.80;64.38
71485;BME280;59300;52.074;4.758;2022-09-21T07:24:09;102788.56;;;18.37;59.90
71485;BME280;59300;52.074;4.758;2022-09-21T07:27:12;102794.44;;;17.18;61.31
71485;BME280;59300;52.074;4.758;2022-09-21T07:30:14;102788.72;;;17.68;60.79
71485;BME280;59300;52.074;4.758;2022-09-21T07:33:15;102793.41;;;17.25;63.89
71485;BME280;59300;52.074;4.758;2022-09-21T07:36:17;102783.63;;;17.92;58.37
71485;BME280;59300;52.074;4.758;2022-09-21T07:39:18;102796.19;;;18.21;57.31
71485;BME280;59300;52.074;4.758;2022-09-21T07:42:20;102790.94;;;18.77;58.33
71485;BME280;59300;52.074;4.758;2022-09-21T07:45:22;102789.38;;;19.26;55.49
71485;BME280;59300;52.074;4.758;2022-09-21T07:48:23;102790.72;;;19.40;55.92
71485;BME280;59300;52.074;4.758;2022-09-21T07:51:25;102789.28;;;19.02;56.36
71485;BME280;59300;52.074;4.758;2022-09-21T07:54:26;102779.16;;;19.38;53.49
71485;BME280;59300;52.074;4.758;2022-09-21T07:57:27;102785.16;;;19.46;52.63
71485;BME280;59300;52.074;4.758;2022-09-21T08:00:29;102785.16;;;19.46;53.42
71485;BME280;59300;52.074;4.758;2022-09-21T08:03:30;102787.81;;;18.62;54.71
71485;BME280;59300;52.074;4.758;2022-09-21T08:06:33;102783.16;;;20.27;49.17
71485;BME280;59300;52.074;4.758;2022-09-21T08:09:34;102773.75;;;20.39;48.70
71485;BME280;59300;52.074;4.758;2022-09-21T08:12:36;102787.22;;;20.14;49.32
71485;BME280;59300;52.074;4.758;2022-09-21T08:15:37;102787.34;;;19.60;50.66
71485;BME280;59300;52.074;4.758;2022-09-21T08:18:51;102789.72;;;20.42;49.30
71485;BME280;59300;52.074;4.758;2022-09-21T08:21:52;102792.50;;;19.91;51.25
71485;BME280;59300;52.074;4.758;2022-09-21T08:24:58;102799.38;;;19.99;49.91
71485;BME280;59300;52.074;4.758;2022-09-21T08:27:59;102799.25;;;19.24;52.62
71485;BME280;59300;52.074;4.758;2022-09-21T08:31:02;102805.06;;;18.82;53.22
71485;BME280;59300;52.074;4.758;2022-09-21T08:34:04;102799.47;;;20.91;45.90
71485;BME280;59300;52.074;4.758;2022-09-21T08:37:06;102802.13;;;20.45;46.03
71485;BME280;59300;52.074;4.758;2022-09-21T08:40:08;102801.56;;;20.36;46.21
71485;BME280;59300;52.074;4.758;2022-09-21T08:43:26;102799.06;;;19.30;49.04
71485;BME280;59300;52.074;4.758;2022-09-21T08:46:31;102804.63;;;20.49;47.48
71485;BME280;59300;52.074;4.758;2022-09-21T08:49:37;102804.28;;;20.82;45.87
71485;BME280;59300;52.074;4.758;2022-09-21T08:52:39;102805.16;;;18.50;52.75
71485;BME280;59300;52.074;4.758;2022-09-21T08:55:42;102808.97;;;17.06;56.97
71485;BME280;59300;52.074;4.758;2022-09-21T08:58:43;102810.13;;;16.53;60.11
71485;BME280;59300;52.074;4.758;2022-09-21T09:12:21;102817.47;;;15.96;64.20
71485;BME280;59300;52.074;4.758;2022-09-21T09:15:55;102818.34;;;17.23;61.34
71485;BME280;59300;52.074;4.758;2022-09-21T09:19:24;102822.56;;;18.92;54.09
71485;BME280;59300;52.074;4.758;2022-09-21T09:22:39;102829.41;;;20.32;47.39
71485;BME280;59300;52.074;4.758;2022-09-21T09:25:48;102818.16;;;18.91;52.22
71485;BME280;59300;52.074;4.758;2022-09-21T09:28:54;102829.53;;;19.53;49.79
71485;BME280;59300;52.074;4.758;2022-09-21T09:32:00;102824.59;;;19.41;50.83
71485;BME280;59300;52.074;4.758;2022-09-21T09:48:23;102816.09;;;20.05;46.06
71485;BME280;59300;52.074;4.758;2022-09-21T09:51:28;102810.94;;;21.16;42.38
71485;BME280;59300;52.074;4.758;2022-09-21T09:54:33;102816.94;;;21.01;45.07
71485;BME280;59300;52.074;4.758;2022-09-21T09:57:35;102816.63;;;21.52;43.94
71485;BME280;59300;52.074;4.758;2022-09-21T10:00:38;102814.81;;;22.14;40.75
71485;BME280;59300;52.074;4.758;2022-09-21T10:03:40;102810.28;;;22.15;40.12
71485;BME280;59300;52.074;4.758;2022-09-21T10:06:42;102811.75;;;20.50;43.86
71485;BME280;59300;52.074;4.758;2022-09-21T10:09:47;102816.31;;;19.74;46.08
71485;BME280;59300;52.074;4.758;2022-09-21T10:12:50;102814.44;;;19.76;47.04
71485;BME280;59300;52.074;4.758;2022-09-21T10:15:54;102811.88;;;20.47;45.55
71485;BME280;59300;52.074;4.758;2022-09-21T10:18:59;102815.56;;;20.91;43.46
71485;BME280;59300;52.074;4.758;2022-09-21T10:22:03;102803.94;;;19.97;46.39
71485;BME280;59300;52.074;4.758;2022-09-21T10:25:05;102810.47;;;20.84;43.91
71485;BME280;59300;52.074;4.758;2022-09-21T10:28:10;102804.06;;;21.52;41.50
71485;BME280;59300;52.074;4.758;2022-09-21T10:31:21;102808.53;;;22.14;39.31
71485;BME280;59300;52.074;4.758;2022-09-21T10:34:25;102801.81;;;20.76;44.08
71485;BME280;59300;52.074;4.758;2022-09-21T10:40:37;102802.53;;;21.46;41.87
71485;BME280;59300;52.074;4.758;2022-09-21T10:43:41;102804.66;;;20.71;43.41
71485;BME280;59300;52.074;4.758;2022-09-21T10:46:46;102795.44;;;20.33;45.67
71485;BME280;59300;52.074;4.758;2022-09-21T10:49:52;102800.91;;;20.53;44.89
71485;BME280;59300;52.074;4.758;2022-09-21T10:53:33;102795.56;;;20.06;46.08
71485;BME280;59300;52.074;4.758;2022-09-21T10:56:49;102794.16;;;20.43;45.92
71485;BME280;59300;52.074;4.758;2022-09-21T10:59:51;102787.38;;;20.80;44.52
71485;BME280;59300;52.074;4.758;2022-09-21T11:02:52;102781.41;;;21.37;41.08
71485;BME280;59300;52.074;4.758;2022-09-21T11:05:55;102778.97;;;20.66;43.76
71485;BME280;59300;52.074;4.758;2022-09-21T11:15:32;102786.34;;;20.13;43.09
71485;BME280;59300;52.074;4.758;2022-09-21T11:18:56;102782.88;;;20.35;40.91
71485;BME280;59300;52.074;4.758;2022-09-21T11:22:12;102784.22;;;20.69;41.49
71485;BME280;59300;52.074;4.758;2022-09-21T11:28:30;102782.44;;;20.22;43.81
71485;BME280;59300;52.074;4.758;2022-09-21T11:37:54;102777.63;;;17.50;52.66
71485;BME280;59300;52.074;4.758;2022-09-21T11:44:49;102773.97;;;16.81;52.16
71485;BME280;59300;52.074;4.758;2022-09-21T11:58:02;102765.13;;;19.04;44.39
71485;BME280;59300;52.074;4.758;2022-09-21T12:04:27;102762.81;;;18.05;48.41
71485;BME280;59300;52.074;4.758;2022-09-21T12:14:32;102745.22;;;19.13;43.06
71485;BME280;59300;52.074;4.758;2022-09-21T12:18:02;102745.78;;;19.48;44.28
71485;BME280;59300;52.074;4.758;2022-09-21T12:21:14;102744.38;;;19.63;43.52
71485;BME280;59300;52.074;4.758;2022-09-21T12:24:24;102743.69;;;19.06;45.34
71485;BME280;59300;52.074;4.758;2022-09-21T12:28:01;102739.63;;;19.46;42.21
71485;BME280;59300;52.074;4.758;2022-09-21T12:31:09;102741.53;;;19.68;41.71
71485;BME280;59300;52.074;4.758;2022-09-21T12:34:16;102745.09;;;19.43;42.05
71485;BME280;59300;52.074;4.758;2022-09-21T12:40:42;102734.19;;;19.73;42.28
71485;BME280;59300;52.074;4.758;2022-09-21T12:44:09;102737.41;;;19.07;44.39
71485;BME280;59300;52.074;4.758;2022-09-21T12:47:13;102731.59;;;18.92;43.47
71485;BME280;59300;52.074;4.758;2022-09-21T12:53:31;102735.69;;;17.87;45.81
71485;BME280;59300;52.074;4.758;2022-09-21T12:56:49;102724.47;;;17.41;46.99
71485;BME280;59300;52.074;4.758;2022-09-21T13:00:03;102730.78;;;17.04;47.03
71485;BME280;59300;52.074;4.758;2022-09-21T13:03:13;102724.38;;;16.72;48.69
71485;BME280;59300;52.074;4.758;2022-09-21T13:06:38;102726.66;;;16.51;50.09
71485;BME280;59300;52.074;4.758;2022-09-21T13:09:46;102724.28;;;17.14;49.00
71485;BME280;59300;52.074;4.758;2022-09-21T13:12:53;102720.53;;;17.22;49.45
71485;BME280;59300;52.074;4.758;2022-09-21T13:15:56;102720.09;;;16.66;49.68
71485;BME280;59300;52.074;4.758;2022-09-21T13:19:04;102708.06;;;16.48;50.35
71485;BME280;59300;52.074;4.758;2022-09-21T13:34:44;102702.63;;;18.78;47.38
71485;BME280;59300;52.074;4.758;2022-09-21T13:41:26;102700.00;;;19.30;44.94
71485;BME280;59300;52.074;4.758;2022-09-21T13:44:47;102699.59;;;19.67;43.42
71485;BME280;59300;52.074;4.758;2022-09-21T13:47:52;102698.81;;;19.39;44.75
71485;BME280;59300;52.074;4.758;2022-09-21T13:50:56;102694.78;;;19.00;45.41
71485;BME280;59300;52.074;4.758;2022-09-21T13:54:00;102692.25;;;19.23;44.94
71485;BME280;59300;52.074;4.758;2022-09-21T13:57:29;102688.03;;;19.41;46.16
71485;BME280;59300;52.074;4.758;2022-09-21T14:00:35;102688.59;;;18.98;46.98
71485;BME280;59300;52.074;4.758;2022-09-21T14:04:00;102691.38;;;18.68;49.12
71485;BME280;59300;52.074;4.758;2022-09-21T14:07:03;102682.63;;;17.75;50.38
71485;BME280;59300;52.074;4.758;2022-09-21T14:10:06;102688.56;;;17.53;50.62
71485;BME280;59300;52.074;4.758;2022-09-21T14:13:24;102683.56;;;17.41;48.34
71485;BME280;59300;52.074;4.758;2022-09-21T14:22:33;102677.94;;;17.18;51.48
71485;BME280;59300;52.074;4.758;2022-09-21T14:25:57;102677.31;;;17.73;47.81
71485;BME280;59300;52.074;4.758;2022-09-21T14:29:16;102675.72;;;18.56;46.55
71485;BME280;59300;52.074;4.758;2022-09-21T14:32:23;102673.16;;;18.80;47.21
71485;BME280;59300;52.074;4.758;2022-09-21T14:35:30;102667.00;;;19.30;45.10
71485;BME280;59300;52.074;4.758;2022-09-21T14:38:41;102658.53;;;19.42;43.66
71485;BME280;59300;52.074;4.758;2022-09-21T14:41:45;102657.94;;;19.09;45.15
71485;BME280;59300;52.074;4.758;2022-09-21T14:44:49;102661.50;;;19.09;43.62
71485;BME280;59300;52.074;4.758;2022-09-21T14:47:56;102657.44;;;18.97;46.20
71485;BME280;59300;52.074;4.758;2022-09-21T14:51:14;102663.69;;;18.42;46.05
71485;BME280;59300;52.074;4.758;2022-09-21T15:00:39;102652.22;;;17.79;46.56
71485;BME280;59300;52.074;4.758;2022-09-21T15:04:02;102646.66;;;17.57;48.04
71485;BME280;59300;52.074;4.758;2022-09-21T15:15:08;102636.53;;;17.03;50.03
71485;BME280;59300;52.074;4.758;2022-09-21T15:17:50;102627.34;;;16.79;50.32
71485;BME280;59300;52.074;4.758;2022-09-21T15:20:56;102630.09;;;16.40;51.16
71485;BME280;59300;52.074;4.758;2022-09-21T15:24:00;102637.75;;;16.16;51.37
71485;BME280;59300;52.074;4.758;2022-09-21T15:27:14;102631.28;;;15.87;52.51
71485;BME280;59300;52.074;4.758;2022-09-21T15:30:25;102625.50;;;15.65;53.55
71485;BME280;59300;52.074;4.758;2022-09-21T15:33:27;102630.22;;;15.50;53.83
71485;BME280;59300;52.074;4.758;2022-09-21T15:36:29;102622.31;;;15.47;53.09
71485;BME280;59300;52.074;4.758;2022-09-21T15:39:31;102620.81;;;15.34;54.17
71485;BME280;59300;52.074;4.758;2022-09-21T15:42:33;102625.44;;;15.24;54.98
71485;BME280;59300;52.074;4.758;2022-09-21T15:48:54;102620.66;;;15.42;55.78
71485;BME280;59300;52.074;4.758;2022-09-21T15:52:18;102627.94;;;15.32;56.79
71485;BME280;59300;52.074;4.758;2022-09-21T15:55:20;102625.38;;;15.27;55.18
71485;BME280;59300;52.074;4.758;2022-09-21T15:58:37;102619.72;;;15.44;54.40
71485;BME280;59300;52.074;4.758;2022-09-21T16:01:43;102614.91;;;15.63;52.25
71485;BME280;59300;52.074;4.758;2022-09-21T16:04:46;102615.69;;;15.69;54.02
71485;BME280;59300;52.074;4.758;2022-09-21T16:07:49;102612.94;;;15.73;53.12
71485;BME280;59300;52.074;4.758;2022-09-21T16:11:17;102608.31;;;15.81;55.17
71485;BME280;59300;52.074;4.758;2022-09-21T16:14:20;102602.91;;;15.86;55.22
71485;BME280;59300;52.074;4.758;2022-09-21T16:17:25;102607.34;;;15.84;54.97
71485;BME280;59300;52.074;4.758;2022-09-21T16:20:44;102611.16;;;15.72;53.28
71485;BME280;59300;52.074;4.758;2022-09-21T16:23:48;102619.63;;;15.49;54.38
71485;BME280;59300;52.074;4.758;2022-09-21T16:26:57;102610.22;;;15.31;57.30
71485;BME280;59300;52.074;4.758;2022-09-21T16:29:59;102607.75;;;15.20;56.56
71485;BME280;59300;52.074;4.758;2022-09-21T16:33:01;102613.22;;;15.14;58.07
71485;BME280;59300;52.074;4.758;2022-09-21T16:36:10;102605.56;;;14.95;57.71
71485;BME280;59300;52.074;4.758;2022-09-21T16:39:26;102603.22;;;14.78;57.12
71485;BME280;59300;52.074;4.758;2022-09-21T16:42:28;102605.19;;;14.65;57.17
71485;BME280;59300;52.074;4.758;2022-09-21T16:45:30;102611.72;;;14.44;60.38
71485;BME280;59300;52.074;4.758;2022-09-21T16:48:32;102612.97;;;14.20;59.34
71485;BME280;59300;52.074;4.758;2022-09-21T16:51:33;102609.75;;;13.99;60.72
71485;BME280;59300;52.074;4.758;2022-09-21T16:54:35;102618.91;;;13.76;61.51
71485;BME280;59300;52.074;4.758;2022-09-21T16:57:36;102616.53;;;13.53;62.57
71485;BME280;59300;52.074;4.758;2022-09-21T17:00:39;102615.81;;;13.34;64.42
71485;BME280;59300;52.074;4.758;2022-09-21T17:03:42;102609.78;;;13.19;63.94
71485;BME280;59300;52.074;4.758;2022-09-21T17:06:44;102609.00;;;13.11;64.21
71485;BME280;59300;52.074;4.758;2022-09-21T17:09:45;102603.84;;;12.97;64.63
71485;BME280;59300;52.074;4.758;2022-09-21T17:12:47;102601.34;;;12.82;66.52
71485;BME280;59300;52.074;4.758;2022-09-21T17:15:48;102600.63;;;12.63;67.83
71485;BME280;59300;52.074;4.758;2022-09-21T17:18:50;102601.59;;;12.48;68.66
71485;BME280;59300;52.074;4.758;2022-09-21T17:21:51;102606.13;;;12.35;69.56
71485;BME280;59300;52.074;4.758;2022-09-21T17:24:53;102610.59;;;12.25;70.37
71485;BME280;59300;52.074;4.758;2022-09-21T17:27:55;102606.28;;;12.13;71.35
71485;BME280;59300;52.074;4.758;2022-09-21T17:30:56;102609.00;;;11.96;73.52
71485;BME280;59300;52.074;4.758;2022-09-21T17:34:07;102611.69;;;11.79;75.18
71485;BME280;59300;52.074;4.758;2022-09-21T17:37:09;102605.59;;;11.60;76.46
71485;BME280;59300;52.074;4.758;2022-09-21T17:40:11;102608.31;;;11.43;77.21
71485;BME280;59300;52.074;4.758;2022-09-21T17:43:35;102605.72;;;11.26;78.18
71485;BME280;59300;52.074;4.758;2022-09-21T17:47:16;102610.16;;;11.10;79.27
71485;BME280;59300;52.074;4.758;2022-09-21T17:50:22;102601.38;;;11.00;80.22
71485;BME280;59300;52.074;4.758;2022-09-21T17:53:24;102602.25;;;10.91;82.30
71485;BME280;59300;52.074;4.758;2022-09-21T17:56:57;102608.44;;;10.78;82.99
71485;BME280;59300;52.074;4.758;2022-09-21T18:00:04;102611.97;;;10.61;83.50
71485;BME280;59300;52.074;4.758;2022-09-21T18:03:25;102601.41;;;10.50;84.40
71485;BME280;59300;52.074;4.758;2022-09-21T18:06:28;102598.78;;;10.44;85.29
71485;BME280;59300;52.074;4.758;2022-09-21T18:09:29;102602.28;;;10.38;85.95
71485;BME280;59300;52.074;4.758;2022-09-21T18:12:54;102605.72;;;10.28;86.38
71485;BME280;59300;52.074;4.758;2022-09-21T18:25:53;102619.72;;;9.91;89.76
71485;BME280;59300;52.074;4.758;2022-09-21T18:28:55;102623.19;;;9.84;89.73
71485;BME280;59300;52.074;4.758;2022-09-21T18:32:18;102623.19;;;9.78;90.53
71485;BME280;59300;52.074;4.758;2022-09-21T18:38:40;102618.75;;;9.63;92.47
71485;BME280;59300;52.074;4.758;2022-09-21T18:45:26;102622.19;;;9.49;92.54
71485;BME280;59300;52.074;4.758;2022-09-21T18:54:49;102619.47;;;9.34;92.23
71485;BME280;59300;52.074;4.758;2022-09-21T18:57:51;102626.47;;;9.32;93.73
71485;BME280;59300;52.074;4.758;2022-09-21T19:00:53;102622.09;;;9.34;94.93
71485;BME280;59300;52.074;4.758;2022-09-21T19:03:55;102624.72;;;9.31;95.00
71485;BME280;59300;52.074;4.758;2022-09-21T19:07:12;102632.53;;;9.18;95.47
71485;BME280;59300;52.074;4.758;2022-09-21T19:10:36;102630.72;;;9.08;96.66